Time;durP1;ratioP1;P1;durP2;ratioP2;P2;SDS_P1;SDS_P2;PMS_P1;PMS_P2;Temp;Humidity;BMP_temperature;BMP_pressure;BME280_temperature;BME280_humidity;BME280_pressure;Samples;Min_cycle;Max_cycle;Signal;HPM_P1;HPM_P2
2023/02/14 00:02:12;;;;;;;5.20;4.80;;;;;;;3.80;99.30;99996.85;105820;1256;68890;-71
2023/02/14 00:04:43;;;;;;;8.60;5.40;;;;;;;3.79;99.31;99996.13;105836;1254;71131;-69
2023/02/14 00:07:13;;;;;;;7.10;5.40;;;;;;;3.79;99.23;99981.50;105879;1257;61365;-69
2023/02/14 00:09:41;;;;;;;7.30;4.70;;;;;;;3.80;99.30;99979.25;105187;1256;62663;-68
2023/02/14 00:12:11;;;;;;;9.90;5.90;;;;;;;3.81;99.17;99981.51;105292;1258;75283;-69
2023/02/14 00:17:28;;;;;;;5.70;5.10;;;;;;;3.81;99.31;99974.52;105239;1258;72285;-69
2023/02/14 00:19:58;;;;;;;7.40;4.70;;;;;;;3.80;99.36;99971.61;109281;1254;58630;-69
2023/02/14 00:22:26;;;;;;;5.40;3.90;;;;;;;3.82;99.39;99970.76;109347;1254;59228;-70
2023/02/14 00:24:55;;;;;;;6.50;5.10;;;;;;;3.81;99.12;99967.23;109252;1254;73467;-68
2023/02/14 00:27:23;;;;;;;6.50;5.00;;;;;;;3.81;99.29;99962.81;109208;1254;66123;-68
2023/02/14 00:29:53;;;;;;;5.90;4.60;;;;;;;3.82;99.32;99969.78;109175;1255;70268;-70
2023/02/14 00:32:22;;;;;;;4.40;4.00;;;;;;;3.83;99.30;99973.17;109143;1256;59066;-70
2023/02/14 00:34:52;;;;;;;5.70;4.50;;;;;;;3.84;99.17;99965.77;109317;1256;60246;-70
2023/02/14 00:37:21;;;;;;;8.50;4.70;;;;;;;3.86;99.07;99953.13;109327;1255;71709;-71
2023/02/14 00:39:49;;;;;;;8.30;5.60;;;;;;;3.89;98.81;99973.64;109326;1255;67921;-68
2023/02/14 00:42:17;;;;;;;5.00;4.50;;;;;;;3.90;98.50;99966.48;109329;1255;73290;-70
2023/02/14 00:44:45;;;;;;;7.00;4.80;;;;;;;3.90;98.29;99954.23;107762;1255;1003025;-70
2023/02/14 00:47:13;;;;;;;6.50;4.70;;;;;;;3.89;98.23;99955.55;109330;1255;59471;-68
2023/02/14 00:49:43;;;;;;;4.90;4.30;;;;;;;3.90;98.09;99968.94;109330;1255;71287;-69
2023/02/14 00:52:11;;;;;;;6.20;5.00;;;;;;;3.92;97.96;99971.48;109364;1255;67535;-70
2023/02/14 00:54:40;;;;;;;6.20;4.20;;;;;;;3.94;97.84;99974.55;109318;1256;72313;-70
2023/02/14 00:57:08;;;;;;;5.60;4.40;;;;;;;3.98;97.65;99955.21;109312;1255;59776;-72
2023/02/14 00:59:36;;;;;;;8.30;4.60;;;;;;;4.00;97.41;99963.73;109194;1256;60540;-70
2023/02/14 01:02:05;;;;;;;5.10;4.20;;;;;;;4.00;97.27;99949.12;109320;1255;74834;-69
2023/02/14 01:04:34;;;;;;;6.70;4.20;;;;;;;4.00;97.06;99942.10;109191;1256;67313;-69
2023/02/14 01:07:02;;;;;;;6.60;4.10;;;;;;;4.00;97.09;99942.11;109315;1255;70677;-71
2023/02/14 01:09:30;;;;;;;8.50;4.90;;;;;;;4.02;96.86;99929.93;109170;1256;60224;-69
2023/02/14 01:12:02;;;;;;;6.80;4.10;;;;;;;4.03;96.89;99926.56;109360;1255;61547;-70
2023/02/14 01:14:30;;;;;;;6.70;4.20;;;;;;;4.04;96.65;99927.42;109318;1255;73056;-69
2023/02/14 01:17:01;;;;;;;7.40;4.60;;;;;;;4.05;96.45;99919.85;109348;1255;65983;-69
2023/02/14 01:19:30;;;;;;;4.90;4.30;;;;;;;4.03;96.35;99915.39;109191;1256;73667;-70
2023/02/14 01:21:58;;;;;;;7.50;4.30;;;;;;;4.03;96.38;99918.99;109329;1255;59374;-73
2023/02/14 01:24:26;;;;;;;4.30;3.90;;;;;;;4.02;96.34;99927.11;109153;1256;60667;-70
2023/02/14 01:26:54;;;;;;;6.50;3.80;;;;;;;4.03;96.31;99922.88;109326;1255;74070;-69
2023/02/14 01:29:22;;;;;;;5.30;4.60;;;;;;;4.06;96.16;99931.73;109347;1255;66118;-70
2023/02/14 01:31:52;;;;;;;4.90;4.40;;;;;;;4.07;96.12;99913.52;109187;1256;73794;-71
2023/02/14 01:34:41;;;;;;;5.90;4.00;;;;;;;4.07;96.07;99902.58;109138;1256;61019;-70
2023/02/14 01:37:12;;;;;;;7.80;5.00;;;;;;;4.06;95.92;99896.33;109109;1258;58127;-71
2023/02/14 01:39:41;;;;;;;6.80;4.00;;;;;;;4.06;95.97;99880.39;109141;1255;72266;-70
2023/02/14 01:42:09;;;;;;;5.40;4.20;;;;;;;4.06;95.91;99896.52;109234;1255;67863;-69
2023/02/14 01:44:39;;;;;;;4.20;3.80;;;;;;;4.07;95.72;99899.27;109232;1255;71017;-70
2023/02/14 01:47:07;;;;;;;5.10;4.20;;;;;;;4.08;95.71;99889.27;109213;1255;58944;-69
2023/02/14 01:49:42;;;;;;;5.70;4.10;;;;;;;4.07;95.68;99881.13;109262;1255;59377;-70
2023/02/14 01:52:22;;;;;;;6.10;4.60;;;;;;;4.08;95.53;99899.55;109177;1256;72301;-70
2023/02/14 01:54:52;;;;;;;5.20;4.10;;;;;;;4.07;95.50;99881.54;109147;1256;68240;-72
2023/02/14 01:57:21;;;;;;;4.80;3.70;;;;;;;4.05;95.54;99877.33;109120;1256;71632;-70
2023/02/14 01:59:54;;;;;;;7.10;4.60;;;;;;;4.06;95.58;99858.33;109229;1255;61141;-69
2023/02/14 02:02:22;;;;;;;;;;;;;;;4.07;95.55;99847.89;109190;1256;59107;-70
2023/02/14 02:04:53;;;;;;;6.70;4.50;;;;;;;4.06;95.42;99846.16;109138;1256;73383;-70
2023/02/14 02:07:23;;;;;;;8.50;3.50;;;;;;;4.05;95.38;99843.66;109232;1256;67143;-70
2023/02/14 02:09:53;;;;;;;6.40;4.70;;;;;;;4.03;95.19;99844.52;109101;1256;71478;-71
2023/02/14 02:12:23;;;;;;;5.50;4.10;;;;;;;4.01;95.26;99848.86;109146;1256;58809;-70
2023/02/14 02:14:53;;;;;;;7.10;4.10;;;;;;;4.01;95.32;99847.99;109173;1256;61302;-70
2023/02/14 02:17:30;;;;;;;5.20;4.00;;;;;;;4.01;95.38;99848.41;109115;1256;72143;-70
2023/02/14 02:20:17;;;;;;;6.50;4.70;;;;;;;4.02;95.33;99847.19;109245;1256;66955;-70
2023/02/14 02:23:09;;;;;;;5.10;4.00;;;;;;;4.02;95.19;99824.75;109202;1255;72802;-70
2023/02/14 02:25:51;;;;;;;6.30;4.30;;;;;;;4.00;95.05;99834.36;109105;1256;60836;-69
2023/02/14 02:28:47;;;;;;;5.90;4.90;;;;;;;3.99;95.20;99823.75;109212;1255;58532;-71
2023/02/14 02:31:38;;;;;;;3.50;3.20;;;;;;;3.98;95.26;99850.29;109026;1257;73387;-71
2023/02/14 02:34:24;;;;;;;5.00;4.10;;;;;;;4.00;95.27;99832.35;109127;1257;66771;-69
2023/02/14 02:37:17;;;;;;;5.80;3.80;;;;;;;4.01;95.16;99833.42;109088;1257;72396;-70
2023/02/14 02:40:05;;;;;;;6.50;5.30;;;;;;;4.00;95.21;99844.27;109080;1257;60089;-69
2023/02/14 02:43:01;;;;;;;5.00;3.40;;;;;;;4.00;95.23;99844.40;109114;1257;59433;-69
2023/02/14 02:46:46;;;;;;;6.90;4.70;;;;;;;3.99;95.29;99856.49;109071;1257;73048;-70
2023/02/14 02:48:33;;;;;;;7.30;4.10;;;;;;;4.00;95.24;99858.96;109094;1257;68169;-70
2023/02/14 02:53:58;;;;;;;4.50;3.80;;;;;;;3.99;95.38;99857.20;108947;1257;58194;-70
2023/02/14 02:56:45;;;;;;;5.80;3.70;;;;;;;4.00;95.50;99866.73;109075;1257;59436;-70
2023/02/14 02:59:27;;;;;;;8.20;4.60;;;;;;;3.99;95.44;99891.02;108988;1257;73421;-72
2023/02/14 03:02:16;;;;;;;4.70;4.30;;;;;;;3.98;95.47;99889.49;109094;1257;68121;-69
2023/02/14 03:04:58;;;;;;;5.90;4.80;;;;;;;3.97;95.59;99885.59;109003;1257;70175;-70
2023/02/14 03:07:35;;;;;;;8.30;4.10;;;;;;;3.99;95.56;99891.02;108935;1257;60564;-70
2023/02/14 03:10:18;;;;;;;4.50;3.90;;;;;;;4.01;95.47;99894.06;109107;1257;59379;-69
2023/02/14 03:12:55;;;;;;;4.20;3.70;;;;;;;4.01;95.66;99897.25;109057;1257;74034;-70
2023/02/14 03:15:41;;;;;;;4.10;3.70;;;;;;;4.00;96.18;99903.21;109106;1257;68345;-69
2023/02/14 03:21:43;;;;;;;8.50;5.60;;;;;;;3.88;98.38;99902.52;109088;1257;62303;-69
2023/02/14 03:24:46;;;;;;;6.70;4.60;;;;;;;3.85;99.46;99911.80;109065;1257;59284;-70
2023/02/14 03:27:31;;;;;;;5.90;3.90;;;;;;;3.80;100.00;99909.11;109041;1257;74211;-69
2023/02/14 03:30:15;;;;;;;9.00;4.50;;;;;;;3.76;100.00;99913.84;109047;1257;66670;-70
2023/02/14 03:33:12;;;;;;;6.00;3.60;;;;;;;3.72;100.00;99912.54;109082;1257;71726;-71
2023/02/14 03:36:00;;;;;;;5.60;4.70;;;;;;;3.67;100.00;99911.73;108953;1257;59270;-72
2023/02/14 03:38:31;;;;;;;7.50;5.20;;;;;;;3.60;100.00;99909.58;108980;1257;60249;-71
2023/02/14 03:41:01;;;;;;;5.00;3.90;;;;;;;3.55;100.00;99913.33;109028;1257;72760;-71
2023/02/14 03:43:32;;;;;;;4.30;3.40;;;;;;;3.48;100.00;99902.21;109012;1257;67036;-70
2023/02/14 03:46:09;;;;;;;4.10;3.50;;;;;;;3.44;100.00;99892.96;108943;1257;70471;-71
2023/02/14 03:48:37;;;;;;;6.30;4.60;;;;;;;3.42;100.00;99892.88;109009;1257;60566;-72
2023/02/14 03:51:06;;;;;;;7.50;4.40;;;;;;;3.42;100.00;99902.39;109010;1257;60792;-72
2023/02/14 03:53:37;;;;;;;6.20;3.90;;;;;;;3.38;100.00;99895.02;109101;1257;74791;-69
2023/02/14 03:56:22;;;;;;;4.80;3.40;;;;;;;3.37;100.00;99893.74;108955;1257;66019;-71
2023/02/14 03:58:53;;;;;;;4.40;4.00;;;;;;;3.35;100.00;99880.79;109063;1258;71490;-69
2023/02/14 04:01:35;;;;;;;5.60;3.60;;;;;;;3.34;100.00;99889.77;109051;1257;62514;-69
2023/02/14 04:04:03;;;;;;;3.70;3.40;;;;;;;3.31;100.00;99894.17;109039;1257;58254;-68
2023/02/14 04:06:32;;;;;;;3.60;3.30;;;;;;;3.30;100.00;99897.65;108941;1257;72431;-72
2023/02/14 04:09:00;;;;;;;4.60;3.60;;;;;;;3.30;100.00;99895.36;109107;1257;68223;-70
2023/02/14 04:11:34;;;;;;;5.30;3.40;;;;;;;3.30;100.00;99904.64;109014;1257;73677;-70
2023/02/14 04:14:03;;;;;;;4.00;3.70;;;;;;;3.30;100.00;99902.88;108993;1257;58386;-72
2023/02/14 04:19:21;;;;;;;4.50;3.10;;;;;;;3.31;100.00;99912.53;109105;1257;59385;-70
2023/02/14 04:19:23;;;;;;;6.90;3.30;;;;;;;3.31;100.00;99911.99;109022;1257;72650;-73
2023/02/14 04:21:51;;;;;;;6.20;3.30;;;;;;;3.28;100.00;99918.69;109042;1257;68029;-71
2023/02/14 04:24:19;;;;;;;4.40;3.10;;;;;;;3.27;100.00;99919.17;109072;1257;72893;-71
2023/02/14 04:27:08;;;;;;;5.50;3.80;;;;;;;3.28;100.00;99918.69;109031;1257;59888;-70
2023/02/14 04:29:41;;;;;;;4.30;3.90;;;;;;;3.29;100.00;99929.45;109040;1258;59048;-69
2023/02/14 04:32:13;;;;;;;3.80;3.40;;;;;;;3.29;100.00;99928.55;109072;1258;73729;-69
2023/02/14 04:34:41;;;;;;;7.70;3.80;;;;;;;3.30;100.00;99929.34;109025;1259;68333;-70
2023/02/14 04:37:10;;;;;;;4.70;4.20;;;;;;;3.30;100.00;99935.23;109059;1259;72586;-69
2023/02/14 04:39:40;;;;;;;4.10;3.50;;;;;;;3.31;100.00;99938.41;108973;1258;58558;-71
2023/02/14 04:42:09;;;;;;;5.00;4.40;;;;;;;3.30;100.00;99943.81;109024;1259;58348;-71
2023/02/14 04:44:38;;;;;;;4.70;3.20;;;;;;;3.29;100.00;99942.54;109074;1258;72843;-70
2023/02/14 04:47:06;;;;;;;3.40;3.10;;;;;;;3.27;100.00;99949.80;109131;1258;68504;-72
2023/02/14 04:49:35;;;;;;;5.00;3.70;;;;;;;3.27;100.00;99952.89;109080;1258;72745;-70
2023/02/14 04:52:04;;;;;;;6.10;4.30;;;;;;;3.28;100.00;99949.06;108965;1259;59044;-71
2023/02/14 04:54:34;;;;;;;3.80;3.30;;;;;;;3.29;100.00;99948.67;109067;1258;60291;-70
2023/02/14 04:57:02;;;;;;;8.20;6.30;;;;;;;3.29;100.00;99954.89;108941;1259;72947;-69
2023/02/14 04:59:32;;;;;;;10.80;5.60;;;;;;;3.28;100.00;99962.64;109091;1258;66838;-69
2023/02/14 05:02:00;;;;;;;4.50;4.10;;;;;;;3.25;100.00;99976.49;108991;1259;70483;-70
2023/02/14 05:04:28;;;;;;;10.90;6.20;;;;;;;3.18;100.00;99979.91;108990;1259;59926;-71
2023/02/14 05:06:56;;;;;;;5.20;3.50;;;;;;;3.17;100.00;99978.81;109008;1259;59178;-72
2023/02/14 05:09:25;;;;;;;3.70;3.40;;;;;;;3.17;100.00;99980.08;109047;1258;75050;-73
2023/02/14 05:11:53;;;;;;;3.30;2.90;;;;;;;3.17;100.00;99980.50;109034;1258;68996;-72
2023/02/14 05:14:21;;;;;;;3.70;2.80;;;;;;;3.14;100.00;99977.00;109048;1259;70431;-72
2023/02/14 05:16:50;;;;;;;3.60;3.00;;;;;;;3.13;100.00;99973.14;109018;1259;60345;-71
2023/02/14 05:19:19;;;;;;;4.40;2.80;;;;;;;3.07;100.00;99968.77;109048;1259;59272;-70
2023/02/14 05:21:48;;;;;;;4.40;2.90;;;;;;;3.07;100.00;99963.17;109043;1258;73024;-70
2023/02/14 05:24:16;;;;;;;4.80;2.90;;;;;;;3.09;100.00;99957.50;109085;1258;68127;-70
2023/02/14 05:26:47;;;;;;;4.30;2.70;;;;;;;3.08;100.00;99959.70;109035;1258;71680;-70
2023/02/14 05:29:16;;;;;;;3.60;3.00;;;;;;;3.08;100.00;99962.89;108949;1260;61055;-68
2023/02/14 05:31:44;;;;;;;6.00;3.00;;;;;;;3.07;100.00;99965.61;108982;1261;58013;-70
2023/02/14 05:34:13;;;;;;;6.30;2.60;;;;;;;3.07;100.00;99975.45;108993;1260;75034;-69
2023/02/14 05:36:42;;;;;;;4.00;3.20;;;;;;;3.07;100.00;99967.99;109006;1260;67574;-71
2023/02/14 05:39:13;;;;;;;5.30;3.10;;;;;;;3.08;100.00;99961.50;108922;1260;70781;-71
2023/02/14 05:41:42;;;;;;;3.70;3.00;;;;;;;3.10;100.00;99969.58;108907;1260;61357;-71
2023/02/14 05:44:10;;;;;;;4.20;3.00;;;;;;;3.10;100.00;99978.41;109000;1260;60659;-70
2023/02/14 05:46:42;;;;;;;4.30;3.40;;;;;;;3.10;100.00;99976.52;108933;1260;74147;-69
2023/02/14 05:49:10;;;;;;;3.20;2.90;;;;;;;3.11;100.00;99976.48;108994;1260;67974;-71
2023/02/14 05:51:38;;;;;;;4.70;3.70;;;;;;;3.12;100.00;99970.03;108962;1260;70877;-69
2023/02/14 05:54:06;;;;;;;2.40;2.20;;;;;;;3.13;100.00;99980.05;108987;1260;59040;-70
2023/02/14 05:56:38;;;;;;;4.20;3.10;;;;;;;3.13;100.00;99986.64;108994;1260;59128;-68
2023/02/14 05:59:06;;;;;;;5.70;3.50;;;;;;;3.14;100.00;99989.63;109001;1260;74455;-68
2023/02/14 06:01:35;;;;;;;3.30;3.00;;;;;;;3.15;100.00;99987.77;108945;1260;69124;-69
2023/02/14 06:04:03;;;;;;;3.80;3.30;;;;;;;3.16;100.00;99991.08;108994;1261;71668;-71
2023/02/14 06:06:31;;;;;;;9.80;6.50;;;;;;;3.18;100.00;99989.61;108972;1260;58676;-71
2023/02/14 06:09:02;;;;;;;8.30;5.30;;;;;;;3.19;100.00;99989.20;108952;1260;60782;-72
2023/02/14 06:11:31;;;;;;;3.10;2.80;;;;;;;3.19;100.00;99994.48;108938;1261;72163;-70
2023/02/14 06:14:00;;;;;;;5.60;3.70;;;;;;;3.21;100.00;99999.77;108939;1260;69284;-71
2023/02/14 06:16:29;;;;;;;4.70;3.20;;;;;;;3.22;100.00;100005.05;108984;1260;72650;-70
2023/02/14 06:18:57;;;;;;;8.10;4.70;;;;;;;3.26;100.00;100004.42;108998;1260;59874;-71
2023/02/14 06:21:27;;;;;;;3.20;2.90;;;;;;;3.30;100.00;100000.73;108955;1260;59629;-68
2023/02/14 06:23:55;;;;;;;5.70;3.20;;;;;;;3.32;100.00;99997.42;109009;1260;72597;-70
2023/02/14 06:26:26;;;;;;;6.10;4.10;;;;;;;3.33;100.00;100000.50;108944;1260;67606;-70
2023/02/14 06:28:57;;;;;;;3.30;3.00;;;;;;;3.31;100.00;100005.23;108831;1262;73658;-70
2023/02/14 06:31:28;;;;;;;3.50;2.90;;;;;;;3.31;100.00;100000.91;108902;1260;58966;-71
2023/02/14 06:33:59;;;;;;;6.30;3.40;;;;;;;3.33;100.00;99997.20;108942;1260;59120;-68
2023/02/14 06:36:32;;;;;;;5.50;2.50;;;;;;;3.37;100.00;100003.15;108921;1260;73459;-69
2023/02/14 06:39:03;;;;;;;3.30;2.40;;;;;;;3.40;100.00;100010.66;108861;1260;67287;-69
2023/02/14 06:41:34;;;;;;;3.80;2.30;;;;;;;3.43;100.00;100002.98;108844;1260;70669;-71
2023/02/14 06:44:05;;;;;;;3.80;2.50;;;;;;;3.45;100.00;100003.97;108912;1260;59181;-70
2023/02/14 06:46:37;;;;;;;2.40;2.00;;;;;;;3.47;100.00;100002.50;108826;1260;60092;-71
2023/02/14 06:49:09;;;;;;;;;;;;;;;3.48;100.00;100003.30;108858;1260;74207;-71
2023/02/14 06:51:39;;;;;;;2.20;2.00;;;;;;;3.49;100.00;100005.35;108978;1260;68756;-71
2023/02/14 06:54:12;;;;;;;2.50;2.30;;;;;;;3.50;99.67;100010.14;108823;1260;73688;-74
2023/02/14 06:56:44;;;;;;;2.90;2.40;;;;;;;3.54;99.18;99999.23;108904;1260;58231;-73
2023/02/14 06:59:17;;;;;;;5.40;3.60;;;;;;;3.58;98.69;100006.16;108949;1260;59129;-72
2023/02/14 07:01:49;;;;;;;5.30;2.30;;;;;;;3.57;97.65;100005.71;108299;1261;714411;-73
2023/02/14 07:04:21;;;;;;;3.30;2.60;;;;;;;3.55;96.39;100011.27;108921;1260;68055;-71
2023/02/14 07:06:54;;;;;;;5.10;2.50;;;;;;;3.57;96.45;100001.70;108899;1262;72301;-70
2023/02/14 07:09:24;;;;;;;4.40;2.40;;;;;;;3.59;96.30;100001.19;108895;1261;60199;-71
2023/02/14 07:11:55;;;;;;;4.50;2.60;;;;;;;3.64;96.03;100006.53;108953;1260;58735;-76
2023/02/14 07:14:28;;;;;;;2.60;2.40;;;;;;;3.67;94.73;100005.64;108978;1261;71451;-75
2023/02/14 07:17:02;;;;;;;5.00;3.60;;;;;;;3.71;94.36;99996.58;108922;1262;67991;-72
2023/02/14 07:19:35;;;;;;;3.60;2.40;;;;;;;3.75;93.49;100003.55;108923;1260;71963;-69
2023/02/14 07:22:07;;;;;;;9.90;5.10;;;;;;;3.78;92.50;100000.98;108905;1260;60994;-68
2023/02/14 07:24:38;;;;;;;4.30;3.00;;;;;;;3.82;92.05;100000.46;108900;1260;58161;-69
2023/02/14 07:35:18;;;;;;;3.90;2.70;;;;;;;3.91;88.96;99996.94;102785;1290;601593;-70
2023/02/14 07:37:50;;;;;;;4.10;2.50;;;;;;;3.89;88.82;99990.92;105320;1266;62997;-71
2023/02/14 07:40:19;;;;;;;5.40;2.80;;;;;;;3.89;88.83;99987.06;105232;1263;60968;-70
2023/02/14 07:42:55;;;;;;;8.20;4.00;;;;;;;3.92;88.10;99987.04;104907;1270;73119;-71
2023/02/14 07:45:23;;;;;;;4.40;2.20;;;;;;;3.96;87.68;99998.67;105204;1269;68704;-72
2023/02/14 07:47:52;;;;;;;2.70;2.50;;;;;;;3.94;86.53;99994.37;104677;1269;682263;-71
2023/02/14 07:50:22;;;;;;;5.70;2.10;;;;;;;3.95;86.41;99998.23;105440;1263;59497;-70
2023/02/14 07:52:50;;;;;;;5.90;2.40;;;;;;;3.92;85.49;99990.65;105441;1263;60127;-73
2023/02/14 07:55:19;;;;;;;2.50;2.30;;;;;;;3.92;85.17;99995.81;104968;1268;71894;-71
2023/02/14 07:57:48;;;;;;;2.90;2.00;;;;;;;3.88;84.33;100000.34;105152;1263;69636;-69
2023/02/14 08:00:16;;;;;;;3.40;1.90;;;;;;;3.91;84.02;100005.20;105767;1254;73165;-70
2023/02/14 08:02:46;;;;;;;4.10;2.10;;;;;;;3.91;82.96;100001.41;105818;1258;59657;-71
2023/02/14 08:05:14;;;;;;;2.20;1.90;;;;;;;3.92;83.13;100004.81;105885;1257;59666;-70
2023/02/14 08:07:43;;;;;;;1.80;1.70;;;;;;;3.93;83.03;100005.42;105868;1254;71554;-72
2023/02/14 08:10:11;;;;;;;4.40;2.30;;;;;;;3.93;82.67;100004.33;105711;1260;69883;-70
2023/02/14 08:13:00;;;;;;;6.10;2.60;;;;;;;3.91;82.30;100012.38;106007;1256;73555;-72
2023/02/14 08:18:19;;;;;;;5.20;3.00;;;;;;;3.94;81.00;100006.73;105883;1255;62590;-71
2023/02/14 08:20:48;;;;;;;5.90;2.70;;;;;;;3.96;80.70;100000.77;105909;1254;72830;-69
2023/02/14 08:23:18;;;;;;;2.40;2.00;;;;;;;3.96;80.63;100012.52;105985;1256;68000;-70
2023/02/14 08:25:49;;;;;;;2.70;2.30;;;;;;;3.92;80.94;100003.38;106108;1253;73247;-73
2023/02/14 08:28:27;;;;;;;3.90;2.30;;;;;;;3.91;81.21;100004.27;105883;1253;59669;-73
2023/02/14 08:31:05;;;;;;;3.10;2.20;;;;;;;3.92;81.40;100012.23;105995;1253;60766;-72
2023/02/14 08:33:33;;;;;;;9.30;3.60;;;;;;;3.94;81.32;100008.78;105800;1252;72344;-68
2023/02/14 08:36:02;;;;;;;3.50;3.00;;;;;;;3.97;81.14;100010.27;105922;1257;69295;-69
2023/02/14 08:38:30;;;;;;;5.60;2.20;;;;;;;3.97;80.55;100018.58;105785;1253;73211;-68
2023/02/14 08:41:00;;;;;;;3.90;2.10;;;;;;;3.92;79.32;100021.14;105898;1253;59795;-69
2023/02/14 08:43:31;;;;;;;;;;;;;;;3.87;78.42;100023.09;105687;1253;59685;-69
2023/02/14 08:46:01;;;;;;;3.00;2.30;;;;;;;3.79;77.75;100021.61;105688;1251;73043;-69
2023/02/14 08:48:30;;;;;;;6.90;3.30;;;;;;;3.75;78.21;100029.61;109433;1251;67580;-69
2023/02/14 08:50:58;;;;;;;2.60;2.40;;;;;;;3.77;78.39;100035.48;109517;1251;72788;-68
2023/02/14 08:53:26;;;;;;;3.30;2.30;;;;;;;3.78;78.51;100028.73;109542;1251;58691;-70
2023/02/14 08:55:55;;;;;;;3.00;2.20;;;;;;;3.77;78.55;100024.35;109457;1251;59593;-69
2023/02/14 08:58:24;;;;;;;3.70;2.20;;;;;;;3.79;78.84;100027.52;109504;1251;73216;-69
2023/02/14 09:00:52;;;;;;;4.90;2.50;;;;;;;3.80;78.78;100031.36;109480;1251;67855;-69
2023/02/14 09:03:20;;;;;;;2.80;2.10;;;;;;;3.79;78.55;100053.14;109450;1251;71709;-67
2023/02/14 09:05:49;;;;;;;4.60;1.70;;;;;;;3.79;78.40;100055.70;109404;1252;59398;-70
2023/02/14 09:08:17;;;;;;;5.70;2.20;;;;;;;3.81;78.10;100052.08;109484;1252;60781;-69
2023/02/14 09:10:50;;;;;;;3.60;1.90;;;;;;;3.84;77.82;100055.20;109516;1251;73243;-71
2023/02/14 09:13:19;;;;;;;6.40;2.00;;;;;;;3.88;77.85;100056.25;109478;1251;68090;-70
2023/02/14 09:15:47;;;;;;;3.40;2.10;;;;;;;3.91;77.40;100060.52;109505;1251;74023;-70
2023/02/14 09:18:17;;;;;;;3.60;1.90;;;;;;;3.93;77.21;100057.45;109450;1251;58628;-70
2023/02/14 09:20:47;;;;;;;3.90;2.20;;;;;;;3.91;76.79;100047.70;109450;1252;60274;-69
2023/02/14 09:23:15;;;;;;;3.10;1.90;;;;;;;3.91;76.69;100049.34;109585;1250;73163;-69
2023/02/14 09:25:46;;;;;;;6.50;2.90;;;;;;;3.91;76.59;100043.08;109605;1250;67083;-69
2023/02/14 09:28:16;;;;;;;2.30;1.80;;;;;;;3.91;76.18;100054.30;109711;1251;72115;-69
2023/02/14 09:30:44;;;;;;;4.20;1.70;;;;;;;3.91;75.61;100048.07;109635;1251;57363;-72
2023/02/14 09:33:12;;;;;;;2.80;2.10;;;;;;;3.92;75.12;100046.52;109650;1251;61283;-70
2023/02/14 09:35:40;;;;;;;2.90;2.20;;;;;;;3.93;75.18;100051.77;109736;1250;73470;-69
2023/02/14 09:38:09;;;;;;;4.30;2.10;;;;;;;3.92;75.23;100052.02;109728;1251;68144;-68
2023/02/14 09:40:37;;;;;;;3.80;2.00;;;;;;;3.92;75.13;100048.82;109667;1251;71753;-71
2023/02/14 09:43:06;;;;;;;2.00;1.80;;;;;;;3.92;75.21;100040.18;109626;1251;58685;-69
2023/02/14 09:45:34;;;;;;;4.10;3.20;;;;;;;3.91;75.16;100037.23;109704;1251;61527;-69
2023/02/14 09:48:25;;;;;;;5.00;3.40;;;;;;;3.91;75.45;100023.23;109594;1251;72626;-70
2023/02/14 09:51:04;;;;;;;4.90;2.50;;;;;;;3.92;75.67;100020.20;109750;1251;67598;-70
2023/02/14 09:53:33;;;;;;;5.00;2.30;;;;;;;3.93;75.46;100029.54;109633;1251;70002;-71
2023/02/14 09:56:27;;;;;;;4.70;3.40;;;;;;;3.97;75.65;100021.20;109635;1250;57865;-69
2023/02/14 09:58:59;;;;;;;5.40;1.90;;;;;;;4.02;75.45;100026.70;109680;1251;59561;-72
2023/02/14 10:02:12;;;;;;;4.50;2.00;;;;;;;4.03;75.24;100032.80;109608;1251;72134;-70
2023/02/14 10:04:53;;;;;;;4.60;1.80;;;;;;;4.05;75.30;100029.39;109088;1258;67500;-71
2023/02/14 10:07:24;;;;;;;2.20;2.00;;;;;;;4.08;75.17;100020.54;108966;1259;71124;-72
2023/02/14 10:10:29;;;;;;;3.20;2.20;;;;;;;4.09;75.04;100013.45;109426;1251;60544;-71
2023/02/14 10:13:39;;;;;;;5.70;2.60;;;;;;;4.08;74.86;100010.02;109695;1251;59853;-71
2023/02/14 10:16:13;;;;;;;2.50;1.70;;;;;;;4.10;75.12;100021.63;109042;1259;72095;-70
2023/02/14 10:18:45;;;;;;;6.20;2.60;;;;;;;4.14;74.15;100022.89;109602;1251;67837;-71
2023/02/14 10:21:44;;;;;;;5.10;2.10;;;;;;;4.16;73.75;100030.27;109599;1251;71440;-71
2023/02/14 10:24:51;;;;;;;4.30;1.70;;;;;;;4.21;73.96;100014.52;109443;1251;58628;-70
2023/02/14 10:27:31;;;;;;;3.40;2.40;;;;;;;4.24;73.59;100010.19;109355;1252;59486;-69
2023/02/14 10:30:01;;;;;;;3.60;3.30;;;;;;;4.23;73.61;100014.78;108844;1252;1002268;-72
2023/02/14 10:32:47;;;;;;;3.00;2.70;;;;;;;4.20;73.44;100024.20;109599;1253;66874;-70
2023/02/14 10:35:41;;;;;;;4.10;1.90;;;;;;;4.21;73.48;100012.23;109466;1254;71768;-72
2023/02/14 10:38:28;;;;;;;3.90;2.70;;;;;;;4.21;72.74;100025.58;108735;1253;1002443;-71
2023/02/14 10:41:18;;;;;;;4.00;2.60;;;;;;;4.19;71.79;100019.64;109610;1252;61212;-70
2023/02/14 10:44:07;;;;;;;6.10;3.50;;;;;;;4.16;72.04;100014.34;109429;1253;72205;-71
2023/02/14 10:46:40;;;;;;;4.30;2.30;;;;;;;4.19;72.46;100011.89;109486;1254;67921;-67
2023/02/14 10:49:30;;;;;;;1.90;1.60;;;;;;;4.19;72.14;100015.88;109541;1252;70969;-68
2023/02/14 10:52:12;;;;;;;3.20;1.50;;;;;;;4.21;72.01;100014.86;109584;1252;59635;-68
2023/02/14 10:54:42;;;;;;;2.90;2.60;;;;;;;4.26;72.04;100004.95;109572;1252;58438;-70
2023/02/14 10:57:40;;;;;;;5.10;2.20;;;;;;;4.29;71.58;100004.92;109566;1253;73356;-70
2023/02/14 11:00:34;;;;;;;3.60;2.40;;;;;;;4.31;71.28;100006.65;109521;1253;68208;-69
2023/02/14 11:03:05;;;;;;;4.30;2.70;;;;;;;4.29;70.48;100006.67;109521;1253;71389;-69
2023/02/14 11:05:37;;;;;;;3.80;1.90;;;;;;;4.30;70.21;100029.14;109558;1254;59402;-68
2023/02/14 11:08:18;;;;;;;3.00;1.80;;;;;;;4.32;70.23;100013.81;109488;1253;59082;-68
2023/02/14 11:10:47;;;;;;;7.60;2.20;;;;;;;4.34;70.43;100008.33;109579;1253;71104;-70
2023/02/14 11:13:45;;;;;;;2.70;2.10;;;;;;;4.36;70.48;100013.90;109610;1254;69114;-69
2023/02/14 11:16:29;;;;;;;4.40;2.20;;;;;;;4.35;70.61;100008.16;109451;1254;72293;-70
2023/02/14 11:19:23;;;;;;;3.40;2.40;;;;;;;4.28;70.80;100021.52;109542;1252;59146;-75
2023/02/14 11:21:53;;;;;;;4.50;2.00;;;;;;;4.26;70.97;100013.85;109565;1252;58931;-69
2023/02/14 11:24:25;;;;;;;2.20;1.90;;;;;;;4.25;71.20;100001.02;109448;1253;72462;-68
2023/02/14 11:27:09;;;;;;;3.20;1.90;;;;;;;4.23;71.35;100014.61;109607;1256;69175;-69
2023/02/14 11:29:37;;;;;;;8.90;2.60;;;;;;;4.15;71.38;100010.33;109178;1256;72332;-70
2023/02/14 11:32:22;;;;;;;4.90;2.50;;;;;;;4.15;71.71;100013.04;109175;1256;58785;-69
2023/02/14 11:34:53;;;;;;;5.10;3.30;;;;;;;4.14;72.14;100011.80;109107;1257;59046;-69
2023/02/14 11:37:21;;;;;;;9.40;4.30;;;;;;;4.13;72.32;100007.52;109133;1256;71910;-71
2023/02/14 11:39:51;;;;;;;6.40;3.80;;;;;;;4.11;72.14;100009.25;109181;1257;66592;-69
2023/02/14 11:42:41;;;;;;;3.50;2.10;;;;;;;4.06;71.60;100025.08;108942;1257;73540;-71
2023/02/14 11:45:29;;;;;;;3.80;2.50;;;;;;;4.01;71.54;100022.48;109136;1257;59795;-71
2023/02/14 11:48:24;;;;;;;7.70;3.30;;;;;;;4.00;71.30;100016.91;109191;1256;60015;-69
2023/02/14 11:51:15;;;;;;;5.10;2.50;;;;;;;4.01;70.79;100030.88;109096;1257;72054;-68
2023/02/14 11:53:50;;;;;;;3.40;2.50;;;;;;;4.01;70.85;100024.48;109192;1256;67986;-70
2023/02/14 11:56:19;;;;;;;4.80;2.40;;;;;;;4.01;70.96;100031.61;109137;1257;71574;-68
2023/02/14 11:59:02;;;;;;;4.70;2.20;;;;;;;4.02;70.70;100018.77;109103;1257;59789;-69
2023/02/14 12:01:32;;;;;;;3.90;2.20;;;;;;;4.00;70.33;100034.75;109433;1253;58181;-69
2023/02/14 12:04:04;;;;;;;3.80;2.10;;;;;;;4.00;70.39;100022.07;109611;1254;73769;-69
2023/02/14 12:06:33;;;;;;;2.40;1.70;;;;;;;3.96;70.04;100019.80;109419;1254;68679;-71
2023/02/14 12:09:42;;;;;;;5.10;2.00;;;;;;;3.90;69.91;100026.49;109386;1254;70615;-73
2023/02/14 12:12:22;;;;;;;4.00;2.10;;;;;;;3.86;69.87;100012.36;109584;1253;59735;-70
2023/02/14 12:14:50;;;;;;;5.60;2.00;;;;;;;3.84;70.14;100019.23;109425;1254;59438;-72
2023/02/14 12:17:27;;;;;;;3.30;2.00;;;;;;;3.85;70.13;100021.68;109474;1253;73526;-70
2023/02/14 12:20:20;;;;;;;3.50;2.40;;;;;;;3.90;70.04;100026.09;109593;1254;69110;-69